Orehovo-Zuevo, Russia
Current Conditions -  °F | °C
As of 7:00 PM on Saturday 20 Dec 2014 (Local Time) from UUDD Reporting Station
Broken Clouds Broken Clouds  
Wind Chill: 32°   Ceiling: 1700
Heat Index: 37°   Visibility: 6mi
Dew Point: 36°   Wind: 7mph
Humidity: 93%   Direction: 250°WSW
Pressure: 29.44"   Gusts: NA
Location:  55.81°N, 38.98°E
Report Text: UUDD 201600Z 25003MPS 210V310 9999 BKN017 03/02 Q0997 3229009582290095 NOSIG
Loading
Personal Weather Stations






























Interactive Weather Map New forecast layout! Learn more

10-Day Weather Forecast

Advertisements
Track Severe Weather on mobile